Time;durP1;ratioP1;P1;durP2;ratioP2;P2;SDS_P1;SDS_P2;PMS_P1;PMS_P2;Temp;Humidity;BMP_temperature;BMP_pressure;BME280_temperature;BME280_humidity;BME280_pressure;Samples;Min_cycle;Max_cycle;Signal;HPM_P1;HPM_P2
2021/07/17 00:01:48;;;;;;;14.70;8.65;;;;;;;;;;5057759;28;20082;-75
2021/07/17 00:04:14;;;;;;;13.85;8.13;;;;;;;;;;5060903;28;20024;-74
2021/07/17 00:06:39;;;;;;;13.90;8.63;;;;;;;;;;5061070;28;20387;-73
2021/07/17 00:09:08;;;;;;;13.95;7.90;;;;;;;;;;5056723;28;20036;-74
2021/07/17 00:11:34;;;;;;;11.93;8.10;;;;;;;;;;5061222;28;20088;-73
2021/07/17 00:13:59;;;;;;;11.30;7.68;;;;;;;;;;5062472;28;20062;-75
2021/07/17 00:16:27;;;;;;;15.15;8.25;;;;;;;;;;5063092;28;20024;-74
2021/07/17 00:18:54;;;;;;;12.30;8.07;;;;;;;;;;5070932;28;20020;-74
2021/07/17 00:21:21;;;;;;;15.55;8.38;;;;;;;;;;5073428;28;20021;-74
2021/07/17 00:23:47;;;;;;;13.40;8.10;;;;;;;;;;5056739;28;20035;-76
2021/07/17 00:26:13;;;;;;;12.27;7.72;;;;;;;;;;5063626;28;20017;-73
2021/07/17 00:28:38;;;;;;;15.77;10.40;;;;;;;;;;5054964;28;20029;-74
2021/07/17 00:31:04;;;;;;;13.15;8.48;;;;;;;;;;5062788;28;20476;-73
2021/07/17 00:33:29;;;;;;;15.23;8.40;;;;;;;;;;5071891;28;20120;-73
2021/07/17 00:35:55;;;;;;;15.85;8.10;;;;;;;;;;5074822;28;20601;-73
2021/07/17 00:38:20;;;;;;;13.45;8.85;;;;;;;;;;5081710;28;20028;-73
2021/07/17 00:40:46;;;;;;;14.15;8.63;;;;;;;;;;5094829;28;20107;-74
2021/07/17 00:43:11;;;;;;;15.27;8.90;;;;;;;;;;5060687;28;20021;-74
2021/07/17 00:45:38;;;;;;;13.63;9.18;;;;;;;;;;5072123;28;20483;-75
2021/07/17 00:48:04;;;;;;;13.48;9.18;;;;;;;;;;5070641;28;20429;-72
2021/07/17 00:50:29;;;;;;;14.85;10.15;;;;;;;;;;5070349;28;20048;-73
2021/07/17 00:52:55;;;;;;;12.38;8.45;;;;;;;;;;5073717;28;20033;-75
2021/07/17 00:55:25;;;;;;;14.75;8.40;;;;;;;;;;5068743;28;20421;-74
2021/07/17 00:57:52;;;;;;;14.57;9.13;;;;;;;;;;5073338;28;20574;-73
2021/07/17 01:00:18;;;;;;;15.07;8.50;;;;;;;;;;5073661;28;20486;-74
2021/07/17 01:02:48;;;;;;;16.50;8.32;;;;;;;;;;5057699;28;20025;-74
2021/07/17 01:05:16;;;;;;;12.40;7.90;;;;;;;;;;5073547;28;20033;-74
2021/07/17 01:07:41;;;;;;;13.20;8.30;;;;;;;;;;5070350;28;20127;-74
2021/07/17 01:10:09;;;;;;;14.25;8.10;;;;;;;;;;5073789;28;20103;-74
2021/07/17 01:12:35;;;;;;;18.17;9.32;;;;;;;;;;5055352;28;20317;-75
2021/07/17 01:15:01;;;;;;;15.35;8.57;;;;;;;;;;5055309;28;20433;-75
2021/07/17 01:17:27;;;;;;;15.32;9.00;;;;;;;;;;5089482;28;20027;-74
2021/07/17 01:19:53;;;;;;;11.88;7.90;;;;;;;;;;5074141;28;20468;-75
2021/07/17 01:22:19;;;;;;;14.13;8.40;;;;;;;;;;5053810;28;20031;-74
2021/07/17 01:24:45;;;;;;;14.52;9.00;;;;;;;;;;5073278;28;20028;-74
2021/07/17 01:27:17;;;;;;;12.60;7.78;;;;;;;;;;5057651;28;20029;-74
2021/07/17 01:29:45;;;;;;;12.13;7.90;;;;;;;;;;5069876;28;20029;-74
2021/07/17 01:32:10;;;;;;;13.57;8.48;;;;;;;;;;5073051;28;20345;-74
2021/07/17 01:34:38;;;;;;;13.82;9.15;;;;;;;;;;5070178;28;20048;-75
2021/07/17 01:37:04;;;;;;;14.95;9.43;;;;;;;;;;5070486;28;20029;-76
2021/07/17 01:39:30;;;;;;;16.00;8.38;;;;;;;;;;5057013;28;20112;-75
2021/07/17 01:41:55;;;;;;;14.15;8.65;;;;;;;;;;5064825;28;20025;-74
2021/07/17 01:44:21;;;;;;;14.23;8.45;;;;;;;;;;5068583;28;20060;-74
2021/07/17 01:46:47;;;;;;;14.40;8.68;;;;;;;;;;5071467;28;20111;-75
2021/07/17 01:49:13;;;;;;;15.10;8.25;;;;;;;;;;5068802;28;20040;-74
2021/07/17 01:51:38;;;;;;;13.52;8.30;;;;;;;;;;5053824;28;20028;-74
2021/07/17 01:54:04;;;;;;;13.50;9.02;;;;;;;;;;5053256;28;20028;-74
2021/07/17 01:56:31;;;;;;;16.23;9.32;;;;;;;;;;5070220;28;20059;-74
2021/07/17 01:58:56;;;;;;;14.77;8.30;;;;;;;;;;5052722;28;20063;-74
2021/07/17 02:01:26;;;;;;;14.63;8.60;;;;;;;;;;5055717;28;20049;-73
2021/07/17 02:03:52;;;;;;;14.77;8.48;;;;;;;;;;5053057;28;20087;-74
2021/07/17 02:06:26;;;;;;;16.92;9.60;;;;;;;;;;5059853;28;20029;-74
2021/07/17 02:08:52;;;;;;;15.43;9.75;;;;;;;;;;5063166;28;20028;-74
2021/07/17 02:11:17;;;;;;;15.18;8.93;;;;;;;;;;5069439;28;20033;-75
2021/07/17 02:13:43;;;;;;;14.38;8.68;;;;;;;;;;5070641;28;20032;-73
2021/07/17 02:16:08;;;;;;;18.52;9.05;;;;;;;;;;5075975;28;20027;-75
2021/07/17 02:18:34;;;;;;;13.85;9.20;;;;;;;;;;5053869;28;20350;-74
2021/07/17 02:21:02;;;;;;;13.35;9.50;;;;;;;;;;5058018;28;20345;-74
2021/07/17 02:23:28;;;;;;;17.48;9.35;;;;;;;;;;5060663;28;20063;-74
2021/07/17 02:25:54;;;;;;;11.38;8.77;;;;;;;;;;5067132;28;20067;-74
2021/07/17 02:28:20;;;;;;;14.93;9.65;;;;;;;;;;5070466;28;20539;-74
2021/07/17 02:30:47;;;;;;;14.07;9.10;;;;;;;;;;5068989;28;20192;-73
2021/07/17 02:33:13;;;;;;;13.43;9.68;;;;;;;;;;5058577;28;20024;-73
2021/07/17 02:35:38;;;;;;;17.15;8.40;;;;;;;;;;5059444;28;20055;-74
2021/07/17 02:38:04;;;;;;;15.43;7.80;;;;;;;;;;5067133;28;20036;-73
2021/07/17 02:40:29;;;;;;;10.60;7.57;;;;;;;;;;5057142;28;20329;-73
2021/07/17 02:42:55;;;;;;;14.32;8.80;;;;;;;;;;5052180;28;20039;-74
2021/07/17 02:45:20;;;;;;;13.50;8.82;;;;;;;;;;5052114;28;20029;-74
2021/07/17 02:47:46;;;;;;;12.30;8.02;;;;;;;;;;5061390;28;20045;-74
2021/07/17 02:50:12;;;;;;;14.27;8.10;;;;;;;;;;5050648;28;20032;-74
2021/07/17 02:52:37;;;;;;;14.50;8.27;;;;;;;;;;5050816;28;20112;-73
2021/07/17 02:55:04;;;;;;;14.32;9.50;;;;;;;;;;5051172;28;20043;-74
2021/07/17 02:57:29;;;;;;;14.27;8.23;;;;;;;;;;5051451;28;20472;-73
2021/07/17 02:59:55;;;;;;;11.98;8.20;;;;;;;;;;5051264;28;20028;-73
2021/07/17 03:02:21;;;;;;;13.35;7.32;;;;;;;;;;5051036;28;20078;-73
2021/07/17 03:04:47;;;;;;;13.77;7.95;;;;;;;;;;5051139;28;20106;-73
2021/07/17 03:07:12;;;;;;;14.77;8.75;;;;;;;;;;5050646;28;20468;-74
2021/07/17 03:09:37;;;;;;;14.27;8.82;;;;;;;;;;5051461;28;20025;-74
2021/07/17 03:12:03;;;;;;;13.18;10.15;;;;;;;;;;5050649;28;20064;-74
2021/07/17 03:14:29;;;;;;;19.10;10.48;;;;;;;;;;5051012;28;20064;-73
2021/07/17 03:16:54;;;;;;;17.38;10.40;;;;;;;;;;5054754;28;20032;-73
2021/07/17 03:19:20;;;;;;;17.60;9.50;;;;;;;;;;5050579;28;20033;-74
2021/07/17 03:21:45;;;;;;;16.90;8.50;;;;;;;;;;5032377;28;20044;-73
2021/07/17 03:24:11;;;;;;;20.65;9.70;;;;;;;;;;5050266;28;20089;-73
2021/07/17 03:26:37;;;;;;;15.55;9.10;;;;;;;;;;5051022;28;20055;-74
2021/07/17 03:29:02;;;;;;;18.05;9.43;;;;;;;;;;5050708;28;20040;-74
2021/07/17 03:31:29;;;;;;;18.02;9.13;;;;;;;;;;5050745;28;20025;-73
2021/07/17 03:33:55;;;;;;;13.63;8.98;;;;;;;;;;5050435;28;20025;-73
2021/07/17 03:36:20;;;;;;;14.88;8.52;;;;;;;;;;5050363;28;20021;-74
2021/07/17 03:38:46;;;;;;;16.60;9.32;;;;;;;;;;5055747;28;20032;-73
2021/07/17 03:41:11;;;;;;;21.20;9.45;;;;;;;;;;5050254;28;20055;-73
2021/07/17 03:43:37;;;;;;;14.45;9.13;;;;;;;;;;5049847;28;20035;-73
2021/07/17 03:46:02;;;;;;;20.00;9.63;;;;;;;;;;5049804;28;20026;-74
2021/07/17 03:48:28;;;;;;;19.05;9.93;;;;;;;;;;5049041;28;20579;-73
2021/07/17 03:50:53;;;;;;;15.70;9.95;;;;;;;;;;5049731;28;20025;-73
2021/07/17 03:53:19;;;;;;;21.40;9.38;;;;;;;;;;5049977;28;20028;-74
2021/07/17 03:55:44;;;;;;;15.52;8.57;;;;;;;;;;5050370;28;20033;-74
2021/07/17 03:58:10;;;;;;;17.33;8.45;;;;;;;;;;5050116;28;20055;-74
2021/07/17 04:00:38;;;;;;;19.13;8.65;;;;;;;;;;5049863;28;20024;-74
2021/07/17 04:03:04;;;;;;;13.95;9.05;;;;;;;;;;5049870;28;20379;-74
2021/07/17 04:05:30;;;;;;;15.27;8.43;;;;;;;;;;5049721;28;20025;-74
2021/07/17 04:07:56;;;;;;;15.88;8.02;;;;;;;;;;5050171;28;20039;-74
2021/07/17 04:10:22;;;;;;;13.10;7.72;;;;;;;;;;5049834;28;20032;-74
2021/07/17 04:12:48;;;;;;;11.70;8.00;;;;;;;;;;5050169;28;20115;-74
2021/07/17 04:15:14;;;;;;;12.13;8.15;;;;;;;;;;5049967;28;20025;-75
2021/07/17 04:17:40;;;;;;;13.25;8.82;;;;;;;;;;5057868;28;20036;-73
2021/07/17 04:20:07;;;;;;;14.55;8.32;;;;;;;;;;5032116;28;20412;-74
2021/07/17 04:22:33;;;;;;;9.32;7.20;;;;;;;;;;5049719;28;20430;-74
2021/07/17 04:25:07;;;;;;;12.77;7.57;;;;;;;;;;5049157;28;20404;-74
2021/07/17 04:27:33;;;;;;;11.93;6.95;;;;;;;;;;5049169;28;20507;-73
2021/07/17 04:29:58;;;;;;;11.55;6.93;;;;;;;;;;5049341;28;20024;-73
2021/07/17 04:32:24;;;;;;;11.38;7.18;;;;;;;;;;5049392;28;20039;-75
2021/07/17 04:34:49;;;;;;;8.57;6.10;;;;;;;;;;5049783;28;20035;-74
2021/07/17 04:37:19;;;;;;;9.80;6.18;;;;;;;;;;5049740;28;20155;-74
2021/07/17 04:39:48;;;;;;;11.13;6.55;;;;;;;;;;5050838;28;20021;-74
2021/07/17 04:42:14;;;;;;;10.65;6.30;;;;;;;;;;5049737;28;20027;-73
2021/07/17 04:44:39;;;;;;;9.18;6.70;;;;;;;;;;5049968;28;20388;-74
2021/07/17 04:47:05;;;;;;;9.35;6.30;;;;;;;;;;5049829;28;20108;-72
2021/07/17 04:49:30;;;;;;;9.27;5.80;;;;;;;;;;5049396;28;20041;-74
2021/07/17 04:51:56;;;;;;;9.73;5.80;;;;;;;;;;5049722;28;20082;-74
2021/07/17 04:54:21;;;;;;;10.07;6.25;;;;;;;;;;5049807;28;20078;-74
2021/07/17 04:56:47;;;;;;;9.38;6.38;;;;;;;;;;5049619;28;20380;-74
2021/07/17 04:59:12;;;;;;;6.32;4.93;;;;;;;;;;5049759;28;20085;-76
2021/07/17 05:01:38;;;;;;;10.23;6.07;;;;;;;;;;5050029;28;20108;-73
2021/07/17 05:04:03;;;;;;;7.93;5.93;;;;;;;;;;5051120;28;20534;-74
2021/07/17 05:06:29;;;;;;;8.52;5.55;;;;;;;;;;5053321;28;20044;-73
2021/07/17 05:08:54;;;;;;;10.13;5.82;;;;;;;;;;5053661;28;20435;-75
2021/07/17 05:11:21;;;;;;;8.38;5.88;;;;;;;;;;5052928;28;20033;-75
2021/07/17 05:13:46;;;;;;;8.15;5.53;;;;;;;;;;5051976;28;20395;-73
2021/07/17 05:16:12;;;;;;;8.35;5.68;;;;;;;;;;5058567;28;20107;-74
2021/07/17 05:18:38;;;;;;;11.15;5.53;;;;;;;;;;5052377;28;20067;-74
2021/07/17 05:21:03;;;;;;;6.93;4.97;;;;;;;;;;5044683;28;20033;-74
2021/07/17 05:23:29;;;;;;;8.20;4.93;;;;;;;;;;5052481;28;20129;-75
2021/07/17 05:25:54;;;;;;;9.27;5.07;;;;;;;;;;5053197;28;20534;-73
2021/07/17 05:28:23;;;;;;;8.35;5.00;;;;;;;;;;5052593;28;20103;-73
2021/07/17 05:30:50;;;;;;;10.05;5.35;;;;;;;;;;5053136;28;20451;-73
2021/07/17 05:33:16;;;;;;;8.80;5.70;;;;;;;;;;5052721;28;20055;-73
2021/07/17 05:35:41;;;;;;;7.05;5.07;;;;;;;;;;5052913;28;20480;-73
2021/07/17 05:38:07;;;;;;;7.97;5.13;;;;;;;;;;5056563;28;20059;-76
2021/07/17 05:40:32;;;;;;;7.68;4.47;;;;;;;;;;5052732;28;20052;-74
2021/07/17 05:42:58;;;;;;;7.90;4.90;;;;;;;;;;5052257;28;20485;-73
2021/07/17 05:45:24;;;;;;;7.00;4.97;;;;;;;;;;5052313;28;20021;-75
2021/07/17 05:47:50;;;;;;;8.90;5.00;;;;;;;;;;5052424;28;20508;-73
2021/07/17 05:50:18;;;;;;;6.75;4.78;;;;;;;;;;5052441;28;20024;-75
2021/07/17 05:52:44;;;;;;;8.02;4.97;;;;;;;;;;5052461;28;20540;-73
2021/07/17 05:55:10;;;;;;;8.75;4.85;;;;;;;;;;5052235;28;20033;-74
2021/07/17 05:57:36;;;;;;;9.35;4.70;;;;;;;;;;5052170;28;20052;-75
2021/07/17 06:00:05;;;;;;;8.52;5.32;;;;;;;;;;5052479;28;20021;-74
2021/07/17 06:02:30;;;;;;;7.70;4.15;;;;;;;;;;5051990;28;20384;-74
2021/07/17 06:04:56;;;;;;;7.55;4.60;;;;;;;;;;5051717;28;20021;-73
2021/07/17 06:07:21;;;;;;;7.13;5.15;;;;;;;;;;5051753;28;20029;-73
2021/07/17 06:09:47;;;;;;;6.85;4.38;;;;;;;;;;5052488;28;20392;-74
2021/07/17 06:12:13;;;;;;;7.68;4.38;;;;;;;;;;5052143;28;20017;-73
2021/07/17 06:14:39;;;;;;;6.28;4.15;;;;;;;;;;5051990;28;20032;-73
2021/07/17 06:17:06;;;;;;;8.82;4.53;;;;;;;;;;5052788;28;20033;-73
2021/07/17 06:19:32;;;;;;;7.05;4.45;;;;;;;;;;5047137;28;20112;-73
2021/07/17 06:21:57;;;;;;;5.43;3.72;;;;;;;;;;5052269;28;20450;-74
2021/07/17 06:24:23;;;;;;;8.05;3.80;;;;;;;;;;5052285;28;20100;-74
2021/07/17 06:26:48;;;;;;;6.90;4.10;;;;;;;;;;5052423;28;20120;-73
2021/07/17 06:29:14;;;;;;;7.75;3.80;;;;;;;;;;5031880;28;20488;-73
2021/07/17 06:31:41;;;;;;;7.88;4.20;;;;;;;;;;5050576;28;20021;-73
2021/07/17 06:34:06;;;;;;;6.25;3.90;;;;;;;;;;5051739;28;20023;-72
2021/07/17 06:36:32;;;;;;;7.35;3.63;;;;;;;;;;5051989;28;20028;-73
2021/07/17 06:38:57;;;;;;;5.93;3.70;;;;;;;;;;5057854;28;20468;-74
2021/07/17 06:41:23;;;;;;;6.15;3.67;;;;;;;;;;5051906;28;20112;-73
2021/07/17 06:43:49;;;;;;;5.88;3.83;;;;;;;;;;5052026;28;20108;-73
2021/07/17 06:46:14;;;;;;;5.05;3.50;;;;;;;;;;5051670;28;20025;-73
2021/07/17 06:48:40;;;;;;;7.53;3.70;;;;;;;;;;5051656;28;20042;-73
2021/07/17 06:51:07;;;;;;;5.57;3.28;;;;;;;;;;5051856;28;20033;-73
2021/07/17 06:53:33;;;;;;;6.40;3.63;;;;;;;;;;5051460;28;20021;-75
2021/07/17 06:55:58;;;;;;;7.00;3.58;;;;;;;;;;5051904;28;20040;-73
2021/07/17 06:58:24;;;;;;;6.35;3.38;;;;;;;;;;5051705;28;20376;-74
2021/07/17 07:00:49;;;;;;;5.72;3.75;;;;;;;;;;5051261;28;20472;-74
2021/07/17 07:03:15;;;;;;;7.07;3.60;;;;;;;;;;5051079;28;20021;-75
2021/07/17 07:05:40;;;;;;;6.30;3.55;;;;;;;;;;5051645;28;20487;-77
2021/07/17 07:08:06;;;;;;;5.80;3.38;;;;;;;;;;5051801;28;20029;-73
2021/07/17 07:10:32;;;;;;;6.53;3.95;;;;;;;;;;5051036;28;20066;-73
2021/07/17 07:12:57;;;;;;;5.10;3.38;;;;;;;;;;5051222;28;20388;-73
2021/07/17 07:15:25;;;;;;;7.95;4.10;;;;;;;;;;5051469;28;20043;-75
2021/07/17 07:17:50;;;;;;;5.47;3.53;;;;;;;;;;5047406;28;20083;-73
2021/07/17 07:20:16;;;;;;;8.75;3.80;;;;;;;;;;5040619;28;20037;-73
2021/07/17 07:22:41;;;;;;;5.65;3.42;;;;;;;;;;5051421;28;20017;-73
2021/07/17 07:25:08;;;;;;;6.97;3.65;;;;;;;;;;5051518;28;20104;-73
2021/07/17 07:27:34;;;;;;;7.28;3.55;;;;;;;;;;5046951;28;20075;-74
2021/07/17 07:30:00;;;;;;;7.25;3.65;;;;;;;;;;5031663;28;20037;-73
2021/07/17 07:32:27;;;;;;;5.97;3.58;;;;;;;;;;5041049;28;20029;-73
2021/07/17 07:34:53;;;;;;;6.95;3.67;;;;;;;;;;5051475;28;20071;-73
2021/07/17 07:37:18;;;;;;;7.80;3.88;;;;;;;;;;5051185;28;20052;-73
2021/07/17 07:39:44;;;;;;;7.35;3.97;;;;;;;;;;5070091;28;20422;-74
2021/07/17 07:42:09;;;;;;;6.60;3.90;;;;;;;;;;5071292;28;20055;-73
2021/07/17 07:44:36;;;;;;;5.40;3.40;;;;;;;;;;5061421;28;20076;-73
2021/07/17 07:47:02;;;;;;;6.93;3.65;;;;;;;;;;5051647;28;20098;-73
2021/07/17 07:49:29;;;;;;;6.13;3.63;;;;;;;;;;5068781;28;20053;-73
2021/07/17 07:51:54;;;;;;;7.18;3.72;;;;;;;;;;5069841;28;20395;-73
2021/07/17 07:54:19;;;;;;;6.60;3.70;;;;;;;;;;5070983;28;20020;-73
2021/07/17 07:56:45;;;;;;;4.63;3.50;;;;;;;;;;5064498;28;20040;-73
2021/07/17 07:59:11;;;;;;;6.75;3.90;;;;;;;;;;5059440;28;20025;-73
2021/07/17 08:01:36;;;;;;;6.78;3.75;;;;;;;;;;5065684;28;20017;-73
2021/07/17 08:04:02;;;;;;;4.10;3.00;;;;;;;;;;5050902;28;20036;-74
2021/07/17 08:06:28;;;;;;;9.07;3.80;;;;;;;;;;5054292;28;20024;-73
2021/07/17 08:08:54;;;;;;;7.30;3.90;;;;;;;;;;5065540;28;20544;-72
2021/07/17 08:11:19;;;;;;;6.35;3.58;;;;;;;;;;5056627;28;20100;-72
2021/07/17 08:13:45;;;;;;;6.95;3.60;;;;;;;;;;5064673;28;20033;-72
2021/07/17 08:16:11;;;;;;;6.32;2.90;;;;;;;;;;5072080;28;20372;-73
2021/07/17 08:18:36;;;;;;;5.95;3.50;;;;;;;;;;5071524;28;20021;-73
2021/07/17 08:21:02;;;;;;;4.50;3.22;;;;;;;;;;5058263;28;20453;-74
2021/07/17 08:23:28;;;;;;;5.15;3.33;;;;;;;;;;5051580;28;20049;-74
2021/07/17 08:25:53;;;;;;;5.80;3.50;;;;;;;;;;5051728;28;20025;-73
2021/07/17 08:28:19;;;;;;;5.65;3.22;;;;;;;;;;5051494;28;20020;-73
2021/07/17 08:30:44;;;;;;;6.35;3.33;;;;;;;;;;5051742;28;20023;-73
2021/07/17 08:33:10;;;;;;;5.50;3.25;;;;;;;;;;5064626;28;20383;-74
2021/07/17 08:35:36;;;;;;;6.35;3.45;;;;;;;;;;5071396;28;20040;-73
2021/07/17 08:38:01;;;;;;;7.57;3.80;;;;;;;;;;5068374;28;20060;-73
2021/07/17 08:40:28;;;;;;;7.20;3.30;;;;;;;;;;5065528;28;20029;-71
2021/07/17 08:42:55;;;;;;;4.43;2.78;;;;;;;;;;5062975;28;20051;-73
2021/07/17 08:45:24;;;;;;;5.10;3.20;;;;;;;;;;5072473;28;20071;-71
2021/07/17 08:47:51;;;;;;;5.22;3.28;;;;;;;;;;5055528;28;20076;-72
2021/07/17 08:50:22;;;;;;;4.85;3.17;;;;;;;;;;5060053;28;20719;-72
2021/07/17 08:52:51;;;;;;;5.13;3.28;;;;;;;;;;5057225;28;20078;-72
2021/07/17 08:55:16;;;;;;;5.95;3.50;;;;;;;;;;5064043;28;20067;-71
2021/07/17 08:57:45;;;;;;;3.97;3.00;;;;;;;;;;5073115;28;20075;-71
2021/07/17 09:00:13;;;;;;;5.80;3.50;;;;;;;;;;5068614;28;20129;-71
2021/07/17 09:02:43;;;;;;;6.40;3.47;;;;;;;;;;5064555;28;20028;-73
2021/07/17 09:05:12;;;;;;;4.20;3.00;;;;;;;;;;5057792;28;20074;-73
2021/07/17 09:07:38;;;;;;;6.72;3.42;;;;;;;;;;5074294;28;20479;-72
2021/07/17 09:10:27;;;;;;;4.45;3.22;;;;;;;;;;5074190;28;20032;-72
2021/07/17 09:13:14;;;;;;;5.95;3.38;;;;;;;;;;5064553;28;20025;-71
2021/07/17 09:15:50;;;;;;;5.15;3.25;;;;;;;;;;5059717;28;20035;-71
2021/07/17 09:18:23;;;;;;;5.03;3.25;;;;;;;;;;5063014;28;20414;-71
2021/07/17 09:21:02;;;;;;;5.03;3.10;;;;;;;;;;5073178;28;20051;-73
2021/07/17 09:23:32;;;;;;;4.32;3.35;;;;;;;;;;5070679;28;20029;-73
2021/07/17 09:25:58;;;;;;;5.88;3.35;;;;;;;;;;5072470;28;20021;-72
2021/07/17 09:28:28;;;;;;;4.20;3.40;;;;;;;;;;5062974;28;20090;-71
2021/07/17 09:30:56;;;;;;;5.30;3.33;;;;;;;;;;5063038;28;20480;-71
2021/07/17 09:33:22;;;;;;;5.38;3.33;;;;;;;;;;5061054;28;20058;-71
2021/07/17 09:35:49;;;;;;;4.88;3.10;;;;;;;;;;5063124;28;20103;-72
2021/07/17 09:38:17;;;;;;;7.10;3.85;;;;;;;;;;5068774;28;20025;-73
2021/07/17 09:40:42;;;;;;;4.78;3.33;;;;;;;;;;5063983;28;20083;-71
2021/07/17 09:43:09;;;;;;;6.18;3.70;;;;;;;;;;5064708;28;20020;-72
2021/07/17 09:45:39;;;;;;;6.55;4.20;;;;;;;;;;5062924;28;20024;-72
2021/07/17 09:48:26;;;;;;;6.18;3.50;;;;;;;;;;5069970;28;20041;-70
2021/07/17 09:50:53;;;;;;;5.22;3.80;;;;;;;;;;5065141;28;20036;-69
2021/07/17 09:53:43;;;;;;;4.63;3.50;;;;;;;;;;5072947;28;20028;-72
2021/07/17 09:56:11;;;;;;;7.63;3.78;;;;;;;;;;5075633;28;20040;-73
2021/07/17 09:58:39;;;;;;;7.13;4.00;;;;;;;;;;5069732;28;20024;-73
2021/07/17 10:01:16;;;;;;;5.28;3.53;;;;;;;;;;5057886;28;20036;-72
2021/07/17 10:03:43;;;;;;;5.60;3.83;;;;;;;;;;5058931;28;20052;-72
2021/07/17 10:06:10;;;;;;;6.75;3.70;;;;;;;;;;5064499;28;20039;-70
2021/07/17 10:08:36;;;;;;;7.97;3.58;;;;;;;;;;5054431;28;20111;-71
2021/07/17 10:11:11;;;;;;;4.57;3.72;;;;;;;;;;5068295;28;20120;-70
2021/07/17 10:13:40;;;;;;;5.82;3.47;;;;;;;;;;5062146;28;20676;-72
2021/07/17 10:16:21;;;;;;;4.95;3.88;;;;;;;;;;5072529;28;20085;-69
2021/07/17 10:18:47;;;;;;;6.65;3.97;;;;;;;;;;5074518;28;20037;-73
2021/07/17 10:21:13;;;;;;;6.75;3.60;;;;;;;;;;5060290;28;20024;-72
2021/07/17 10:23:40;;;;;;;5.57;3.33;;;;;;;;;;5054844;28;20074;-72
2021/07/17 10:26:07;;;;;;;6.43;3.35;;;;;;;;;;5057765;28;20501;-74
2021/07/17 10:28:33;;;;;;;7.05;3.78;;;;;;;;;;5074117;28;20468;-70
2021/07/17 10:31:00;;;;;;;6.70;3.60;;;;;;;;;;5069000;28;20025;-70
2021/07/17 10:33:26;;;;;;;6.25;3.63;;;;;;;;;;5072198;28;20032;-70
2021/07/17 10:35:56;;;;;;;7.13;3.28;;;;;;;;;;5070079;28;20403;-71
2021/07/17 10:38:22;;;;;;;6.63;3.30;;;;;;;;;;5078636;28;20029;-70
2021/07/17 10:40:53;;;;;;;5.93;3.88;;;;;;;;;;5059533;28;20116;-76
2021/07/17 10:43:21;;;;;;;5.38;3.15;;;;;;;;;;5062265;28;20073;-71
2021/07/17 10:45:47;;;;;;;4.65;3.47;;;;;;;;;;5066808;28;20025;-73
2021/07/17 10:48:32;;;;;;;6.90;3.60;;;;;;;;;;5072326;28;20685;-70
2021/07/17 10:51:25;;;;;;;5.93;3.30;;;;;;;;;;5041825;28;20151;-73
2021/07/17 10:53:56;;;;;;;6.18;3.42;;;;;;;;;;5047537;28;20488;-73
2021/07/17 10:56:27;;;;;;;6.30;3.08;;;;;;;;;;5032311;28;20079;-73
2021/07/17 10:59:00;;;;;;;4.15;3.35;;;;;;;;;;5046223;28;20079;-71
2021/07/17 11:01:55;;;;;;;5.30;3.40;;;;;;;;;;5045876;28;20028;-72
2021/07/17 11:04:44;;;;;;;5.57;3.50;;;;;;;;;;5047018;28;20029;-72
2021/07/17 11:07:17;;;;;;;5.25;3.97;;;;;;;;;;5028285;28;20030;-73
2021/07/17 11:10:01;;;;;;;5.47;3.60;;;;;;;;;;5052954;28;20031;-75
2021/07/17 11:12:34;;;;;;;5.90;3.53;;;;;;;;;;5049294;28;20043;-74
2021/07/17 11:15:08;;;;;;;;;;;;;;;;;;5033383;28;20053;-73
2021/07/17 11:17:48;;;;;;;4.43;3.10;;;;;;;;;;5041354;28;19912;-73
2021/07/17 11:20:43;;;;;;;5.28;3.40;;;;;;;;;;5040398;28;20053;-74
2021/07/17 11:23:12;;;;;;;3.97;3.03;;;;;;;;;;5034320;28;20375;-73
2021/07/17 11:25:38;;;;;;;4.35;3.13;;;;;;;;;;5044639;28;20029;-73
2021/07/17 11:28:07;;;;;;;8.32;3.50;;;;;;;;;;5039895;28;20029;-73
2021/07/17 11:30:35;;;;;;;6.57;3.75;;;;;;;;;;5035266;28;20469;-74
2021/07/17 11:33:07;;;;;;;6.18;3.60;;;;;;;;;;5047717;28;20028;-74
2021/07/17 11:35:35;;;;;;;5.90;3.63;;;;;;;;;;5014694;28;20034;-73
2021/07/17 11:38:05;;;;;;;5.03;3.35;;;;;;;;;;5042104;28;20107;-74
2021/07/17 11:40:31;;;;;;;5.82;3.58;;;;;;;;;;5041900;28;20017;-73
2021/07/17 11:43:01;;;;;;;6.00;3.83;;;;;;;;;;5044817;28;20104;-73
2021/07/17 11:45:30;;;;;;;4.65;3.28;;;;;;;;;;5046872;28;20029;-74
2021/07/17 11:48:15;;;;;;;5.68;3.38;;;;;;;;;;5056859;28;20048;-76
2021/07/17 11:50:43;;;;;;;6.03;3.90;;;;;;;;;;5086320;28;20032;-73
2021/07/17 11:53:16;;;;;;;5.15;3.50;;;;;;;;;;5090958;28;20024;-74
2021/07/17 11:56:00;;;;;;;7.20;3.78;;;;;;;;;;5090925;28;20103;-73
2021/07/17 11:58:50;;;;;;;7.00;3.58;;;;;;;;;;5090712;28;20028;-73
2021/07/17 12:01:17;;;;;;;4.88;3.20;;;;;;;;;;5090507;28;20126;-72
2021/07/17 12:03:53;;;;;;;4.32;3.03;;;;;;;;;;5090643;28;20024;-73
2021/07/17 12:06:27;;;;;;;6.70;3.33;;;;;;;;;;5090869;28;20027;-74
2021/07/17 12:08:53;;;;;;;5.82;3.10;;;;;;;;;;5090854;28;20020;-72
2021/07/17 12:11:22;;;;;;;7.72;2.88;;;;;;;;;;5070136;28;20107;-73
2021/07/17 12:13:48;;;;;;;5.78;2.70;;;;;;;;;;5067013;28;20413;-72
2021/07/17 12:16:21;;;;;;;3.60;2.63;;;;;;;;;;5068075;28;20025;-70
2021/07/17 12:18:59;;;;;;;5.38;2.55;;;;;;;;;;5062946;28;20418;-72
2021/07/17 12:21:25;;;;;;;4.43;2.70;;;;;;;;;;5057807;28;20048;-73
2021/07/17 12:23:57;;;;;;;5.93;2.80;;;;;;;;;;5062160;28;20627;-72
2021/07/17 12:26:23;;;;;;;5.25;2.70;;;;;;;;;;5072330;28;20028;-73
2021/07/17 12:28:49;;;;;;;6.00;2.75;;;;;;;;;;5071643;28;20031;-73
2021/07/17 12:31:14;;;;;;;5.82;4.45;;;;;;;;;;5070412;28;20024;-73
2021/07/17 12:33:41;;;;;;;4.55;3.72;;;;;;;;;;5069967;28;20380;-73
2021/07/17 12:36:26;;;;;;;5.40;4.47;;;;;;;;;;5071003;28;20032;-74
2021/07/17 12:38:59;;;;;;;5.38;3.67;;;;;;;;;;5057835;28;20021;-74
2021/07/17 12:41:26;;;;;;;;;;;;;;;;;;5051175;28;20361;-73
2021/07/17 12:43:54;;;;;;;5.72;4.30;;;;;;;;;;5050392;28;19916;-73
2021/07/17 12:46:38;;;;;;;9.68;7.32;;;;;;;;;;5050630;28;20388;-73
2021/07/17 12:49:08;;;;;;;3.92;2.53;;;;;;;;;;5050250;28;20044;-73
2021/07/17 12:51:35;;;;;;;4.07;3.05;;;;;;;;;;5050191;28;20096;-73
2021/07/17 12:54:06;;;;;;;4.22;2.50;;;;;;;;;;5049130;28;20037;-73
2021/07/17 12:56:43;;;;;;;4.10;2.20;;;;;;;;;;5050819;28;20021;-73
2021/07/17 12:59:39;;;;;;;3.38;2.50;;;;;;;;;;5050556;28;20034;-73
2021/07/17 13:02:06;;;;;;;4.15;2.70;;;;;;;;;;5048468;28;20029;-73
2021/07/17 13:04:32;;;;;;;4.50;2.60;;;;;;;;;;5050166;28;20028;-75
2021/07/17 13:07:08;;;;;;;6.35;2.78;;;;;;;;;;5050108;28;20029;-73
2021/07/17 13:09:36;;;;;;;4.00;2.25;;;;;;;;;;5049853;28;20498;-73
2021/07/17 13:12:10;;;;;;;4.35;2.30;;;;;;;;;;5050603;28;20032;-75
2021/07/17 13:14:38;;;;;;;5.78;2.67;;;;;;;;;;5050277;28;20529;-73
2021/07/17 13:17:14;;;;;;;3.97;2.45;;;;;;;;;;5079366;28;20069;-72
2021/07/17 13:19:40;;;;;;;6.28;2.53;;;;;;;;;;5090180;28;20031;-73
2021/07/17 13:22:08;;;;;;;3.33;2.30;;;;;;;;;;5090529;28;20502;-73
2021/07/17 13:24:41;;;;;;;6.03;2.42;;;;;;;;;;5090342;28;20028;-73
2021/07/17 13:27:16;;;;;;;3.75;2.20;;;;;;;;;;5093392;28;20473;-73
2021/07/17 13:29:45;;;;;;;4.45;2.25;;;;;;;;;;5092637;28;20036;-75
2021/07/17 13:32:11;;;;;;;4.88;2.30;;;;;;;;;;5094458;28;20489;-72
2021/07/17 13:34:37;;;;;;;4.20;2.63;;;;;;;;;;5093795;28;20032;-73
2021/07/17 13:37:03;;;;;;;3.28;2.15;;;;;;;;;;5092813;28;20020;-74
2021/07/17 13:39:31;;;;;;;4.85;2.35;;;;;;;;;;5076716;28;20025;-73
2021/07/17 13:42:07;;;;;;;3.70;2.13;;;;;;;;;;5073468;28;20380;-74
2021/07/17 13:44:33;;;;;;;4.28;2.30;;;;;;;;;;5074004;28;20287;-73
2021/07/17 13:47:12;;;;;;;3.90;2.13;;;;;;;;;;5073524;28;20024;-73
2021/07/17 13:49:38;;;;;;;5.68;2.42;;;;;;;;;;5072809;28;20052;-73
2021/07/17 13:52:04;;;;;;;3.17;2.10;;;;;;;;;;5073384;28;20045;-73
2021/07/17 13:54:29;;;;;;;4.15;2.40;;;;;;;;;;5073199;28;20077;-73
2021/07/17 13:56:55;;;;;;;4.80;2.30;;;;;;;;;;5073336;28;20066;-73
2021/07/17 13:59:30;;;;;;;4.90;2.40;;;;;;;;;;5073593;28;20031;-72
2021/07/17 14:02:05;;;;;;;4.05;2.40;;;;;;;;;;5072790;28;20056;-74
2021/07/17 14:04:32;;;;;;;7.43;2.67;;;;;;;;;;5072971;28;20052;-73
2021/07/17 14:06:57;;;;;;;4.97;2.20;;;;;;;;;;5072947;28;20050;-74
2021/07/17 14:09:22;;;;;;;3.65;2.30;;;;;;;;;;5072751;28;20387;-72
2021/07/17 14:11:48;;;;;;;5.53;2.30;;;;;;;;;;5072463;28;20023;-74
2021/07/17 14:14:15;;;;;;;3.92;2.20;;;;;;;;;;5072729;28;20028;-72
2021/07/17 14:16:40;;;;;;;3.20;2.30;;;;;;;;;;5084274;28;20475;-73
2021/07/17 14:19:06;;;;;;;3.47;2.13;;;;;;;;;;5093134;28;20080;-73
2021/07/17 14:21:31;;;;;;;4.32;2.10;;;;;;;;;;5092946;28;20364;-73
2021/07/17 14:23:57;;;;;;;4.97;2.53;;;;;;;;;;5092827;28;20016;-73
2021/07/17 14:26:22;;;;;;;4.00;2.20;;;;;;;;;;5093124;28;20024;-73
2021/07/17 14:28:48;;;;;;;3.13;1.88;;;;;;;;;;5092540;28;20035;-71
2021/07/17 14:31:13;;;;;;;4.15;2.17;;;;;;;;;;5092740;28;20016;-73
2021/07/17 14:33:38;;;;;;;4.07;2.35;;;;;;;;;;5092348;28;20030;-73
2021/07/17 14:36:04;;;;;;;3.28;1.90;;;;;;;;;;5092430;28;20111;-74
2021/07/17 14:38:30;;;;;;;4.45;2.03;;;;;;;;;;5083785;28;20427;-72
2021/07/17 14:40:55;;;;;;;3.88;2.20;;;;;;;;;;5071900;28;20400;-73
2021/07/17 14:43:21;;;;;;;4.57;2.08;;;;;;;;;;5072684;28;20036;-76